AU-0048 weather

Kulin Bush Races Strip
Kulin, Western Australia, Australia

Public forecast

Using degrees Celsius for public forecast. Weather courtesy of forecast.io.

Closest aviation weather report (METAR) to Kulin Bush Races Strip

Closest report is Perth International Airport, 126.6 nm (234.5 km) WNW. Retrieved 2019/10/14 14:30 UTC (20 minutes ago):

YPPH 141430Z 20012KT CAVOK 13/07 Q1021 FM1500 16008KT CAVOK

Closest aviation forecast (TAF) to Kulin Bush Races Strip

Closest forecast is Perth International Airport, 126.6 nm (234.5 km) WNW. Retrieved 2019/10/14 12:00 UTC (3 hours ago):

TAF YPPH 141047Z 1412/1518 20012KT CAVOK FM141500 16008KT CAVOK FM150400 22014KT CAVOK FM151400 16008KT CAVOK